Time;durP1;ratioP1;P1;durP2;ratioP2;P2;SDS_P1;SDS_P2;PMS_P1;PMS_P2;Temp;Humidity;BMP_temperature;BMP_pressure;BME280_temperature;BME280_humidity;BME280_pressure;Samples;Min_cycle;Max_cycle;Signal;HPM_P1;HPM_P2
2023/04/24 04:45:54;;;;;;;5.67;2.30;;;;;;;9.68;100.00;95224.91;6152830;23;20024;-90
2023/04/24 04:48:27;;;;;;;3.00;1.02;;;;;;;9.66;100.00;95213.81;6152430;23;20017;-90
2023/04/24 04:50:55;;;;;;;2.53;1.10;;;;;;;9.59;100.00;95214.66;6128210;23;20021;-90
2023/04/24 04:53:24;;;;;;;3.10;1.23;;;;;;;9.54;100.00;95220.47;6152691;23;20009;-90
2023/04/24 04:55:49;;;;;;;2.47;1.20;;;;;;;9.63;100.00;95222.03;6152270;23;20033;-90
2023/04/24 04:58:17;;;;;;;4.40;1.50;;;;;;;9.47;100.00;95224.78;6152129;23;20025;-90
2023/04/24 05:00:52;;;;;;;2.53;0.90;;;;;;;9.48;100.00;95223.78;6127776;23;20100;-88
2023/04/24 05:03:35;;;;;;;2.77;1.03;;;;;;;9.61;100.00;95226.63;6155322;23;20010;-91
2023/04/24 05:06:08;;;;;;;3.30;1.00;;;;;;;9.57;100.00;95227.97;6120084;23;20018;-90
2023/04/24 05:08:37;;;;;;;1.17;0.73;;;;;;;9.66;100.00;95229.56;6169333;23;20346;-90
2023/04/24 05:11:07;;;;;;;4.37;1.10;;;;;;;9.78;100.00;95231.72;6141750;23;20021;-90
2023/04/24 05:13:33;;;;;;;2.70;0.73;;;;;;;9.66;100.00;95234.81;6143307;23;20005;-90
2023/04/24 05:16:00;;;;;;;2.70;1.20;;;;;;;9.69;100.00;95241.47;6120858;23;20024;-90
2023/04/24 05:18:27;;;;;;;3.07;0.97;;;;;;;9.64;100.00;95247.28;6148892;23;20006;-90
2023/04/24 05:20:54;;;;;;;1.93;1.00;;;;;;;9.80;100.00;95256.81;6129344;23;20362;-90
2023/04/24 05:23:22;;;;;;;2.80;1.27;;;;;;;9.75;100.00;95260.97;6158778;23;20012;-92
2023/04/24 05:25:52;;;;;;;3.67;1.87;;;;;;;9.89;100.00;95270.69;6188988;23;20099;-92
2023/04/24 05:28:20;;;;;;;3.80;1.10;;;;;;;9.76;100.00;95279.19;6121953;23;20014;-92
2023/04/24 05:30:59;;;;;;;4.40;1.23;;;;;;;9.81;100.00;95292.59;6148364;23;20020;-91
2023/04/24 05:33:25;;;;;;;4.27;1.50;;;;;;;9.74;100.00;95333.66;6148409;23;20024;-91
2023/04/24 05:35:54;;;;;;;2.87;1.17;;;;;;;8.98;100.00;95340.53;6126878;23;20005;-88
2023/04/24 05:38:20;;;;;;;7.80;1.23;;;;;;;8.91;100.00;95342.19;6128867;23;20511;-90
2023/04/24 05:40:46;;;;;;;2.43;0.70;;;;;;;8.87;100.00;95338.28;6150153;23;20005;-91
2023/04/24 05:43:12;;;;;;;2.60;1.30;;;;;;;8.81;100.00;95341.59;6125576;23;20076;-91
2023/04/24 05:45:39;;;;;;;1.90;0.80;;;;;;;8.73;100.00;95347.69;6150434;23;20057;-91
2023/04/24 05:48:05;;;;;;;3.60;1.40;;;;;;;8.50;100.00;95343.16;6151017;23;20024;-91
2023/04/24 05:50:32;;;;;;;1.63;1.00;;;;;;;8.55;100.00;95349.69;6125892;23;20072;-91
2023/04/24 05:53:04;;;;;;;1.50;0.80;;;;;;;8.78;100.00;95347.19;6126497;23;20018;-91
2023/04/24 05:55:33;;;;;;;2.03;1.20;;;;;;;8.59;100.00;95351.84;6152252;23;20027;-91
2023/04/24 05:57:59;;;;;;;2.70;1.00;;;;;;;8.59;100.00;95351.84;6118538;23;20052;-92
2023/04/24 06:00:29;;;;;;;2.83;0.80;;;;;;;8.64;100.00;95339.03;6143254;23;20096;-91
2023/04/24 06:03:03;;;;;;;2.27;1.17;;;;;;;8.86;100.00;95352.41;6121244;23;20017;-92
2023/04/24 06:05:30;;;;;;;2.77;1.10;;;;;;;8.95;100.00;95348.72;6142861;23;20013;-91
2023/04/24 06:07:55;;;;;;;4.47;1.13;;;;;;;9.06;100.00;95348.38;6110002;23;20016;-91
2023/04/24 06:10:27;;;;;;;2.20;1.30;;;;;;;9.25;100.00;95352.34;6114508;23;20028;-91
2023/04/24 06:12:59;;;;;;;3.63;1.37;;;;;;;9.39;100.00;95366.56;6091838;23;20091;-92
2023/04/24 06:15:28;;;;;;;1.77;1.17;;;;;;;9.36;100.00;95367.72;6116561;23;21083;-91
2023/04/24 06:18:00;;;;;;;3.20;1.33;;;;;;;9.16;100.00;95374.41;6117208;23;20120;-91
2023/04/24 06:20:26;;;;;;;3.67;1.10;;;;;;;9.41;100.00;95372.44;6116140;23;20089;-91
2023/04/24 06:22:52;;;;;;;2.27;0.90;;;;;;;9.47;100.00;95376.19;6121267;23;20084;-91
2023/04/24 06:25:18;;;;;;;3.80;1.50;;;;;;;9.33;100.00;95375.13;6145258;23;20091;-91
2023/04/24 06:27:44;;;;;;;3.23;1.60;;;;;;;9.38;100.00;95376.22;6127223;23;20014;-92
2023/04/24 06:30:13;;;;;;;4.47;1.20;;;;;;;9.24;100.00;95379.59;6152422;23;20061;-91
2023/04/24 06:32:39;;;;;;;3.63;1.50;;;;;;;9.36;100.00;95378.22;6127537;23;20013;-91
2023/04/24 06:35:07;;;;;;;4.00;1.57;;;;;;;9.47;100.00;95382.25;6127450;23;20453;-91
2023/04/24 06:37:33;;;;;;;4.17;1.60;;;;;;;9.59;100.00;95385.28;6127802;23;20021;-91
2023/04/24 06:39:59;;;;;;;3.77;1.40;;;;;;;9.47;100.00;95382.25;6129340;23;20476;-91
2023/04/24 06:42:25;;;;;;;3.60;1.60;;;;;;;9.84;100.00;95383.34;6153090;23;20741;-91
2023/04/24 06:44:51;;;;;;;2.97;1.53;;;;;;;9.96;100.00;95379.31;6153369;23;20401;-91
2023/04/24 06:47:18;;;;;;;3.70;1.80;;;;;;;9.83;100.00;95385.16;6128521;23;20005;-91
2023/04/24 06:49:53;;;;;;;2.83;1.50;;;;;;;9.74;100.00;95388.00;6153979;23;20080;-91
2023/04/24 06:52:20;;;;;;;5.93;1.80;;;;;;;9.52;100.00;95390.41;6128608;23;20028;-91
2023/04/24 06:54:45;;;;;;;5.03;2.10;;;;;;;9.50;100.00;95388.97;6152865;23;20379;-91
2023/04/24 06:57:11;;;;;;;4.77;2.00;;;;;;;9.67;100.00;95391.31;6153225;23;20016;-91
2023/04/24 06:59:37;;;;;;;3.97;1.80;;;;;;;10.02;100.00;95386.47;6127875;23;20001;-91
2023/04/24 07:02:03;;;;;;;5.80;2.30;;;;;;;10.08;100.00;95385.75;6152355;23;20043;-91
2023/04/24 07:08:13;;;;;;;5.20;2.10;;;;;;;10.00;100.00;95377.16;6155760;23;20092;-89
2023/04/24 07:10:53;;;;;;;4.03;1.80;;;;;;;10.67;100.00;95371.13;6156592;23;20141;-89
2023/04/24 07:13:18;;;;;;;4.27;1.80;;;;;;;10.36;100.00;95358.94;6153731;23;20004;-88
2023/04/24 07:16:34;;;;;;;4.63;1.90;;;;;;;10.37;100.00;95364.03;6158806;23;20009;-89
2023/04/24 07:19:33;;;;;;;4.37;1.77;;;;;;;10.24;100.00;95369.03;6131046;23;20072;-89
2023/04/24 07:22:17;;;;;;;3.77;2.10;;;;;;;10.56;100.00;95361.84;6130393;23;20021;-88
2023/04/24 07:25:13;;;;;;;3.57;1.87;;;;;;;10.68;100.00;95363.06;6130879;23;20112;-89
2023/04/24 07:28:02;;;;;;;3.07;1.60;;;;;;;10.70;100.00;95358.44;6130277;23;20013;-88
2023/04/24 07:30:32;;;;;;;2.90;1.60;;;;;;;10.97;100.00;95354.34;6130994;23;20017;-89
2023/04/24 07:36:16;;;;;;;4.35;1.90;;;;;;;12.97;100.00;95341.09;6156872;23;20009;-89
2023/04/24 07:38:45;;;;;;;3.50;1.57;;;;;;;13.34;100.00;95334.56;6162051;23;20017;-88
2023/04/24 07:41:13;;;;;;;3.20;1.67;;;;;;;14.03;100.00;95330.84;6160704;23;20009;-88
2023/04/24 07:43:45;;;;;;;4.73;1.47;;;;;;;13.85;100.00;95344.69;6136182;23;20041;-88
2023/04/24 07:46:11;;;;;;;3.03;1.57;;;;;;;14.24;100.00;95335.13;6159329;23;20017;-88
2023/04/24 07:48:36;;;;;;;3.40;1.20;;;;;;;13.52;100.00;95339.31;6130803;23;20064;-89
2023/04/24 07:51:02;;;;;;;2.43;1.30;;;;;;;13.04;100.00;95349.84;6130866;23;20493;-88
2023/04/24 07:53:28;;;;;;;3.07;1.50;;;;;;;12.55;100.00;95353.47;6130938;23;20021;-88
2023/04/24 07:55:55;;;;;;;4.63;1.53;;;;;;;11.93;100.00;95348.91;6180630;23;20018;-88
2023/04/24 07:58:24;;;;;;;4.17;1.73;;;;;;;11.86;100.00;95364.66;6155149;23;20017;-88
2023/04/24 08:00:50;;;;;;;4.00;2.13;;;;;;;12.41;100.00;95362.28;6131740;23;20111;-89
2023/04/24 08:03:18;;;;;;;3.90;1.70;;;;;;;12.48;100.00;95352.59;6142123;23;20010;-89
2023/04/24 08:05:44;;;;;;;3.97;1.80;;;;;;;13.59;100.00;95350.72;6153688;23;20014;-88
2023/04/24 08:08:11;;;;;;;6.13;3.30;;;;;;;12.45;100.00;95352.97;6155187;23;20069;-88
2023/04/24 08:10:41;;;;;;;6.37;2.93;;;;;;;11.96;100.00;95353.81;6147735;23;20056;-88
2023/04/24 08:13:07;;;;;;;2.73;1.40;;;;;;;11.86;100.00;95362.03;6158568;23;20017;-88
2023/04/24 08:15:32;;;;;;;5.17;1.50;;;;;;;11.45;100.00;95374.94;6133189;23;20010;-88
2023/04/24 08:17:58;;;;;;;2.93;1.57;;;;;;;11.59;100.00;95373.28;6133868;23;20020;-88
2023/04/24 08:20:26;;;;;;;3.87;1.73;;;;;;;11.45;100.00;95367.03;6133069;23;20096;-88
2023/04/24 08:22:53;;;;;;;3.23;1.53;;;;;;;11.49;100.00;95366.47;6133664;23;20044;-88
2023/04/24 08:25:19;;;;;;;5.47;1.80;;;;;;;11.55;100.00;95373.63;6134165;23;20025;-88
2023/04/24 08:27:45;;;;;;;3.77;1.60;;;;;;;11.25;100.00;95377.34;6158202;23;20017;-88
2023/04/24 08:30:11;;;;;;;6.27;3.10;;;;;;;11.13;100.00;95384.06;6132099;23;20017;-88
2023/04/24 08:32:56;;;;;;;5.03;3.00;;;;;;;11.16;100.00;95404.75;6155902;23;20013;-88
2023/04/24 08:35:22;;;;;;;3.73;2.20;;;;;;;10.96;100.00;95394.78;6156059;23;20040;-88
2023/04/24 08:37:48;;;;;;;4.00;2.20;;;;;;;10.95;100.00;95414.19;6155934;23;20001;-88
2023/04/24 08:40:29;;;;;;;3.70;1.50;;;;;;;10.37;100.00;95413.97;6156107;23;20063;-88
2023/04/24 08:43:12;;;;;;;3.87;1.67;;;;;;;10.08;100.00;95425.16;6156806;23;20020;-88
2023/04/24 08:45:38;;;;;;;3.25;1.63;;;;;;;10.07;100.00;95430.59;6131411;23;20018;-88
2023/04/24 08:48:04;;;;;;;4.97;2.30;;;;;;;10.20;100.00;95425.56;6156457;23;20020;-89
2023/04/24 08:50:38;;;;;;;4.87;2.50;;;;;;;10.35;100.00;95430.91;6155928;23;20433;-89
2023/04/24 08:53:04;;;;;;;5.37;2.13;;;;;;;10.22;100.00;95431.47;6130900;23;20013;-89
2023/04/24 08:55:30;;;;;;;3.83;2.00;;;;;;;10.24;100.00;95437.38;6156875;23;20005;-89
2023/04/24 08:58:34;;;;;;;4.40;1.83;;;;;;;10.47;100.00;95441.81;6157793;23;20022;-89
2023/04/24 09:01:00;;;;;;;2.78;1.30;;;;;;;10.58;100.00;95441.38;6143843;23;20002;-89
2023/04/24 09:03:28;;;;;;;4.30;2.27;;;;;;;10.69;100.00;95433.03;6142705;23;20101;-89
2023/04/24 09:06:09;;;;;;;6.60;1.90;;;;;;;10.77;100.00;95437.44;6155595;23;20013;-90
2023/04/24 09:08:42;;;;;;;4.37;2.13;;;;;;;10.71;100.00;95438.94;6131500;23;20017;-89
2023/04/24 09:11:12;;;;;;;4.93;2.08;;;;;;;10.83;100.00;95434.91;6155203;23;20013;-89
2023/04/24 09:13:38;;;;;;;3.73;2.03;;;;;;;10.69;100.00;95435.66;6130513;23;20013;-89
2023/04/24 09:16:16;;;;;;;6.27;1.73;;;;;;;10.77;100.00;95440.06;6155284;23;20025;-89
2023/04/24 09:18:44;;;;;;;2.90;1.70;;;;;;;10.71;100.00;95440.75;6131958;23;20327;-89
2023/04/24 09:21:10;;;;;;;4.80;1.80;;;;;;;10.62;100.00;95432.94;6130280;23;20004;-89
2023/04/24 09:23:46;;;;;;;2.87;1.30;;;;;;;10.57;100.00;95432.69;6154412;23;20037;-90
2023/04/24 09:26:22;;;;;;;3.90;1.50;;;;;;;10.73;100.00;95428.25;6131874;23;20013;-90
2023/04/24 09:28:50;;;;;;;4.37;1.27;;;;;;;10.97;100.00;95433.25;6130813;23;20048;-89
2023/04/24 09:31:21;;;;;;;5.37;1.43;;;;;;;11.12;100.00;95427.19;6154775;23;20390;-87
2023/04/24 09:34:07;;;;;;;3.90;1.60;;;;;;;11.31;100.00;95432.69;6130557;23;20468;-89
2023/04/24 09:36:38;;;;;;;2.37;1.20;;;;;;;11.38;100.00;95422.25;6154911;23;20040;-89
2023/04/24 09:39:06;;;;;;;4.73;1.40;;;;;;;11.84;100.00;95439.56;6154612;23;20017;-89
2023/04/24 09:41:32;;;;;;;1.43;1.00;;;;;;;12.44;100.00;95423.38;6154581;23;20765;-87
2023/04/24 09:44:14;;;;;;;3.93;1.23;;;;;;;13.56;100.00;95425.06;6128942;23;20025;-88
2023/04/24 09:46:41;;;;;;;2.97;1.40;;;;;;;14.09;100.00;95427.06;6152542;23;20041;-89
2023/04/24 09:49:16;;;;;;;4.13;1.80;;;;;;;14.78;100.00;95423.25;6129080;23;20011;-89
2023/04/24 09:51:42;;;;;;;3.40;1.40;;;;;;;15.05;100.00;95410.78;6129172;23;20017;-89
2023/04/24 09:54:22;;;;;;;2.77;1.27;;;;;;;14.48;100.00;95422.81;6129065;23;20619;-88
2023/04/24 09:56:49;;;;;;;3.47;1.53;;;;;;;13.80;100.00;95421.09;6155013;23;20025;-88
2023/04/24 09:59:18;;;;;;;1.87;1.20;;;;;;;13.76;100.00;95429.63;6155198;23;20018;-88
2023/04/24 10:01:49;;;;;;;3.37;1.33;;;;;;;12.51;100.00;95423.44;6153547;23;20434;-86
2023/04/24 10:04:18;;;;;;;4.43;2.90;;;;;;;12.29;100.00;95427.91;6153677;23;20020;-89
2023/04/24 10:06:45;;;;;;;4.93;1.20;;;;;;;12.23;100.00;95429.47;6152570;23;20100;-88
2023/04/24 10:09:12;;;;;;;2.70;1.30;;;;;;;12.40;100.00;95430.00;6153522;23;20013;-89
2023/04/24 10:11:50;;;;;;;4.87;1.20;;;;;;;12.57;100.00;95430.56;6152845;23;20009;-88
2023/04/24 10:14:18;;;;;;;2.07;1.10;;;;;;;12.15;100.00;95442.78;6128394;23;20044;-89
2023/04/24 10:16:46;;;;;;;3.00;1.43;;;;;;;12.48;100.00;95427.25;6152675;23;20016;-88
2023/04/24 10:19:13;;;;;;;3.77;1.40;;;;;;;12.56;100.00;95443.94;6152866;23;20025;-89
2023/04/24 10:21:47;;;;;;;3.63;1.60;;;;;;;12.46;100.00;95446.91;6150275;23;20024;-88
2023/04/24 10:24:20;;;;;;;3.00;1.30;;;;;;;12.19;100.00;95443.22;6153802;23;20365;-88
2023/04/24 10:26:51;;;;;;;1.98;1.02;;;;;;;12.31;100.00;95447.00;6130346;23;20013;-88
2023/04/24 10:29:25;;;;;;;3.60;1.07;;;;;;;12.58;100.00;95463.03;6129870;23;20757;-88
2023/04/24 10:31:51;;;;;;;2.37;1.27;;;;;;;11.78;100.00;95470.94;6129477;23;20088;-88
2023/04/24 10:34:20;;;;;;;2.30;1.17;;;;;;;11.86;100.00;95477.13;6154953;23;20425;-88
2023/04/24 10:36:50;;;;;;;2.40;1.00;;;;;;;11.62;100.00;95478.25;6129769;23;20017;-88
2023/04/24 10:39:19;;;;;;;2.37;0.90;;;;;;;11.53;100.00;95469.59;6154851;23;20013;-88
2023/04/24 10:41:49;;;;;;;2.00;0.97;;;;;;;11.12;100.00;95485.88;6130275;23;20073;-87
2023/04/24 10:44:15;;;;;;;7.73;4.23;;;;;;;11.21;100.00;95497.16;6156005;23;20424;-88
2023/04/24 10:46:55;;;;;;;2.83;1.17;;;;;;;11.31;100.00;95482.72;6156223;23;20132;-88
2023/04/24 10:49:29;;;;;;;2.63;0.90;;;;;;;11.90;100.00;95487.09;6149128;23;20116;-87
2023/04/24 10:52:00;;;;;;;1.93;0.97;;;;;;;11.87;100.00;95487.50;6155780;23;20027;-88
2023/04/24 10:54:28;;;;;;;1.17;0.80;;;;;;;12.88;100.00;95488.25;6151016;23;20393;-87
2023/04/24 10:57:19;;;;;;;2.57;1.10;;;;;;;14.27;100.00;95482.81;6125546;23;20009;-87
2023/04/24 10:59:46;;;;;;;2.17;1.10;;;;;;;13.64;100.00;95485.66;6113090;23;20021;-87
2023/04/24 11:02:15;;;;;;;3.23;1.10;;;;;;;13.59;100.00;95490.72;6147596;23;20060;-87
2023/04/24 11:04:41;;;;;;;4.80;1.00;;;;;;;13.08;100.00;95488.38;6173665;23;20025;-87
2023/04/24 11:07:08;;;;;;;2.27;0.90;;;;;;;12.73;100.00;95492.78;6145308;23;20471;-87
2023/04/24 11:09:36;;;;;;;1.53;0.93;;;;;;;12.75;100.00;95493.41;6169180;23;20023;-88
2023/04/24 11:12:13;;;;;;;2.60;1.13;;;;;;;12.65;100.00;95499.00;6161758;23;20012;-87
2023/04/24 11:15:17;;;;;;;1.90;0.87;;;;;;;12.45;100.00;95504.09;6156454;23;20024;-88
2023/04/24 11:17:42;;;;;;;3.30;1.30;;;;;;;12.25;100.00;95503.09;6112002;23;20081;-88
2023/04/24 11:20:18;;;;;;;2.37;0.93;;;;;;;12.33;100.00;95505.59;6130128;23;20018;-87
2023/04/24 11:22:43;;;;;;;2.87;1.07;;;;;;;12.58;100.00;95499.97;6154617;23;20108;-88
2023/04/24 11:25:14;;;;;;;2.23;1.10;;;;;;;12.51;100.00;95499.91;6130170;23;20259;-88
2023/04/24 11:27:41;;;;;;;3.47;0.93;;;;;;;13.13;100.00;95491.25;6155981;23;20071;-87
2023/04/24 11:30:08;;;;;;;3.33;1.43;;;;;;;13.72;100.00;95495.25;6155560;23;20524;-88
2023/04/24 11:32:34;;;;;;;5.00;2.50;;;;;;;13.53;100.00;95501.25;6156411;23;20014;-87
2023/04/24 11:35:03;;;;;;;1.63;1.13;;;;;;;13.05;100.00;95501.16;6156735;23;20048;-88
2023/04/24 11:37:40;;;;;;;2.27;1.13;;;;;;;12.40;100.00;95506.47;6129644;23;20025;-88
2023/04/24 11:40:08;;;;;;;4.80;2.10;;;;;;;12.08;100.00;95504.34;6131493;23;20049;-88
2023/04/24 11:42:38;;;;;;;3.83;1.40;;;;;;;11.78;100.00;95517.53;6131670;23;20429;-88
2023/04/24 11:45:09;;;;;;;3.23;1.30;;;;;;;12.19;100.00;95519.66;6156768;23;20005;-88
2023/04/24 11:47:35;;;;;;;1.60;0.90;;;;;;;12.24;100.00;95520.75;6132561;23;20087;-87
2023/04/24 11:50:02;;;;;;;3.07;1.30;;;;;;;12.11;100.00;95519.78;6159638;23;20377;-87
2023/04/24 11:52:31;;;;;;;3.93;1.80;;;;;;;12.09;100.00;95522.59;6135309;23;20021;-88
2023/04/24 11:55:00;;;;;;;2.77;1.30;;;;;;;12.09;100.00;95527.06;6131467;23;20472;-88
2023/04/24 11:57:33;;;;;;;2.80;1.33;;;;;;;12.20;100.00;95534.47;6132704;23;20048;-88
2023/04/24 12:00:03;;;;;;;4.75;1.10;;;;;;;12.25;100.00;95527.63;6157886;23;20111;-88
2023/04/24 12:02:42;;;;;;;2.13;1.27;;;;;;;12.11;100.00;95530.31;6157552;23;20530;-88
2023/04/24 12:05:08;;;;;;;3.53;1.20;;;;;;;12.37;100.00;95530.59;6158868;23;20065;-88
2023/04/24 12:07:44;;;;;;;3.67;1.40;;;;;;;12.46;100.00;95528.66;6133260;23;20007;-88
2023/04/24 12:10:10;;;;;;;4.23;1.60;;;;;;;13.67;100.00;95527.53;6157672;23;20013;-88
2023/04/24 12:12:36;;;;;;;5.13;1.20;;;;;;;13.43;100.00;95520.91;6157341;23;20030;-88
2023/04/24 12:15:07;;;;;;;3.43;1.80;;;;;;;14.13;100.00;95539.34;6133454;23;20017;-88
2023/04/24 12:17:34;;;;;;;1.83;1.10;;;;;;;13.67;100.00;95522.25;6155691;23;20192;-88
2023/04/24 12:20:03;;;;;;;3.60;1.10;;;;;;;13.95;100.00;95525.84;6155310;23;20127;-88
2023/04/24 12:22:53;;;;;;;2.73;1.37;;;;;;;14.17;100.00;95527.34;6155136;23;20006;-87
2023/04/24 12:25:21;;;;;;;2.90;1.50;;;;;;;14.55;100.00;95516.25;6155392;23;20014;-88
2023/04/24 12:27:55;;;;;;;4.23;2.07;;;;;;;13.74;100.00;95537.34;6154698;23;20017;-88
2023/04/24 12:30:21;;;;;;;3.93;1.00;;;;;;;12.92;100.00;95529.06;6127711;23;20017;-88
2023/04/24 12:32:48;;;;;;;3.03;1.23;;;;;;;12.94;100.00;95537.63;6127760;23;20426;-88
2023/04/24 12:35:36;;;;;;;4.07;1.47;;;;;;;13.10;100.00;95546.25;6155968;23;20035;-88
2023/04/24 12:38:10;;;;;;;2.10;1.07;;;;;;;12.94;100.00;95544.69;6136937;23;20037;-88
2023/04/24 12:40:37;;;;;;;2.80;1.17;;;;;;;13.47;100.00;95542.47;6166321;23;20081;-88
2023/04/24 12:43:22;;;;;;;3.27;1.30;;;;;;;13.38;100.00;95547.09;6151212;23;20021;-88
2023/04/24 12:45:48;;;;;;;3.10;1.00;;;;;;;13.15;100.00;95539.41;6128405;23;20021;-88
2023/04/24 12:48:31;;;;;;;2.20;1.07;;;;;;;13.18;100.00;95543.47;6152279;23;20005;-88
2023/04/24 12:51:01;;;;;;;;;;;;;;;13.38;100.00;95539.19;6153891;23;20025;-87
2023/04/24 12:53:50;;;;;;;2.80;1.60;;;;;;;13.37;100.00;95542.00;6128102;23;19917;-88
2023/04/24 12:56:19;;;;;;;2.87;1.40;;;;;;;13.26;100.00;95543.34;6128578;23;20508;-87
2023/04/24 12:58:44;;;;;;;4.40;1.37;;;;;;;12.60;100.00;95540.13;6128465;23;20013;-88
2023/04/24 13:01:10;;;;;;;3.40;1.30;;;;;;;12.35;100.00;95551.06;6156249;23;20350;-88
2023/04/24 13:03:36;;;;;;;3.37;1.47;;;;;;;12.05;100.00;95552.16;6156521;23;20017;-88
2023/04/24 13:06:01;;;;;;;3.27;1.50;;;;;;;11.81;100.00;95559.31;6132548;23;20068;-88
2023/04/24 13:08:27;;;;;;;2.20;1.40;;;;;;;11.86;100.00;95556.97;6131865;23;20005;-88
2023/04/24 13:10:53;;;;;;;2.93;1.23;;;;;;;11.35;100.00;95556.88;6157109;23;20017;-89
2023/04/24 13:13:19;;;;;;;2.27;1.10;;;;;;;11.45;100.00;95554.78;6127109;23;20005;-89
2023/04/24 13:15:45;;;;;;;1.97;1.00;;;;;;;11.64;100.00;95553.44;6156452;23;20017;-89
2023/04/24 13:18:12;;;;;;;1.33;1.10;;;;;;;11.60;100.00;95561.88;6157876;23;20008;-89
2023/04/24 13:20:53;;;;;;;3.00;1.20;;;;;;;11.60;100.00;95559.22;6109944;23;20076;-89
2023/04/24 13:23:18;;;;;;;3.30;1.77;;;;;;;11.99;100.00;95557.13;6158328;23;20070;-89
2023/04/24 13:25:49;;;;;;;2.90;1.70;;;;;;;12.32;100.00;95558.53;6159983;23;20017;-89
2023/04/24 13:28:14;;;;;;;1.63;1.07;;;;;;;12.70;100.00;95549.38;6133999;23;20430;-89
2023/04/24 13:30:40;;;;;;;2.30;1.10;;;;;;;12.39;100.00;95544.41;6133328;23;20024;-89
2023/04/24 13:33:11;;;;;;;2.23;1.43;;;;;;;12.59;100.00;95539.31;6170120;23;20013;-88
2023/04/24 13:35:51;;;;;;;2.27;1.10;;;;;;;12.84;100.00;95547.66;6135215;23;20013;-88
2023/04/24 13:38:21;;;;;;;1.57;0.83;;;;;;;12.96;100.00;95534.78;6132546;23;20023;-88
2023/04/24 13:41:31;;;;;;;3.27;1.43;;;;;;;12.59;100.00;95538.50;6164891;23;20014;-89
2023/04/24 13:43:57;;;;;;;5.83;3.33;;;;;;;12.62;100.00;95538.13;6133391;23;20017;-89
2023/04/24 13:46:23;;;;;;;3.40;1.87;;;;;;;12.54;100.00;95548.81;6132908;23;20334;-89
2023/04/24 13:48:53;;;;;;;5.33;2.07;;;;;;;12.53;100.00;95544.53;6162257;23;20020;-89
2023/04/24 13:51:26;;;;;;;6.50;1.40;;;;;;;12.55;100.00;95547.81;6170551;23;20072;-89
2023/04/24 13:53:52;;;;;;;3.05;1.00;;;;;;;12.29;100.00;95549.16;6146019;23;20025;-89
2023/04/24 13:56:23;;;;;;;2.90;1.27;;;;;;;12.20;100.00;95543.19;6169593;23;20045;-89
2023/04/24 13:58:50;;;;;;;4.83;1.93;;;;;;;12.23;100.00;95544.63;6141274;23;20013;-89
2023/04/24 14:01:16;;;;;;;2.53;1.30;;;;;;;12.20;100.00;95551.09;6158053;23;20053;-89
2023/04/24 14:03:45;;;;;;;3.93;1.90;;;;;;;12.37;100.00;95546.41;6132880;23;20017;-89
2023/04/24 14:06:11;;;;;;;2.70;1.37;;;;;;;12.73;100.00;95553.44;6158958;23;20025;-89
2023/04/24 14:08:37;;;;;;;4.80;1.37;;;;;;;13.30;100.00;95538.50;6134264;23;20013;-89
2023/04/24 14:11:04;;;;;;;2.77;1.40;;;;;;;13.99;100.00;95540.31;6133493;23;20116;-89
2023/04/24 14:13:32;;;;;;;2.00;1.20;;;;;;;13.21;100.00;95543.06;6153401;23;20017;-89
2023/04/24 14:16:00;;;;;;;3.30;1.40;;;;;;;13.12;100.00;95545.06;6154937;23;20005;-89
2023/04/24 14:18:26;;;;;;;2.30;1.40;;;;;;;12.47;100.00;95549.56;6130213;23;20342;-89
2023/04/24 14:20:52;;;;;;;4.50;1.40;;;;;;;12.17;100.00;95572.56;6129463;23;20013;-89
2023/04/24 14:23:18;;;;;;;3.10;1.60;;;;;;;11.40;100.00;95578.22;6156098;23;20045;-87
2023/04/24 14:25:44;;;;;;;4.37;1.80;;;;;;;10.90;100.00;95595.44;6125308;23;20001;-87
2023/04/24 14:28:10;;;;;;;4.73;1.50;;;;;;;10.50;100.00;95594.75;6167073;23;20064;-88
2023/04/24 14:30:37;;;;;;;4.67;2.10;;;;;;;10.66;100.00;95595.63;6122633;23;20468;-88
2023/04/24 14:33:03;;;;;;;4.30;1.70;;;;;;;10.81;100.00;95605.19;6125017;23;20053;-89
2023/04/24 14:36:02;;;;;;;5.60;2.60;;;;;;;11.47;100.00;95594.13;5070448;27;24471;-87
2023/04/24 14:38:43;;;;;;;3.73;1.80;;;;;;;11.67;100.00;95591.75;5045155;28;20072;-86
2023/04/24 14:41:11;;;;;;;2.23;1.20;;;;;;;11.46;100.00;95593.28;5032820;28;20073;-87
2023/04/24 14:43:41;;;;;;;4.37;1.70;;;;;;;11.33;100.00;95593.91;5050435;28;20043;-89
2023/04/24 14:46:07;;;;;;;1.73;1.37;;;;;;;11.22;100.00;95588.25;5050733;28;20287;-89
2023/04/24 14:48:35;;;;;;;2.57;1.30;;;;;;;11.35;100.00;95590.28;5048082;28;20035;-89
2023/04/24 14:51:10;;;;;;;2.93;1.50;;;;;;;11.28;100.00;95588.34;5088425;28;20029;-89
2023/04/24 14:53:36;;;;;;;4.63;2.00;;;;;;;11.04;100.00;95586.78;5057940;28;20061;-87
2023/04/24 14:56:02;;;;;;;2.37;1.33;;;;;;;11.13;100.00;95595.41;5087749;28;20020;-86
2023/04/24 14:58:30;;;;;;;7.57;3.70;;;;;;;11.23;100.00;95596.00;5063139;28;20555;-87
2023/04/24 15:00:58;;;;;;;8.47;2.40;;;;;;;10.97;100.00;95593.75;5083903;28;20415;-87
2023/04/24 15:03:35;;;;;;;3.80;1.77;;;;;;;10.77;100.00;95600.47;5048284;28;20037;-87
2023/04/24 15:06:02;;;;;;;2.70;1.40;;;;;;;10.74;100.00;95600.84;5092429;28;20051;-87
2023/04/24 15:08:31;;;;;;;2.63;1.67;;;;;;;10.57;100.00;95600.94;5065089;28;20040;-87
2023/04/24 15:10:59;;;;;;;3.00;1.70;;;;;;;10.65;100.00;95607.94;5086159;28;20094;-86
2023/04/24 15:13:35;;;;;;;3.73;1.80;;;;;;;10.49;100.00;95619.38;5063847;28;20061;-88
2023/04/24 15:16:02;;;;;;;3.33;1.83;;;;;;;10.17;100.00;95624.81;5052624;28;20033;-88
2023/04/24 15:18:37;;;;;;;5.17;2.77;;;;;;;9.67;100.00;95622.34;5047095;28;20049;-89
2023/04/24 15:21:12;;;;;;;3.73;2.10;;;;;;;9.81;100.00;95620.00;5062169;28;20075;-89
2023/04/24 15:23:48;;;;;;;2.70;1.20;;;;;;;9.87;100.00;95632.47;5048420;28;20029;-88
2023/04/24 15:26:15;;;;;;;3.87;1.80;;;;;;;10.19;100.00;95628.06;5067624;28;20063;-88
2023/04/24 15:28:43;;;;;;;4.03;1.80;;;;;;;10.22;100.00;95631.16;5063041;28;20041;-88
2023/04/24 15:31:18;;;;;;;5.47;3.10;;;;;;;10.44;100.00;95626.97;5091419;28;20040;-88
2023/04/24 15:33:45;;;;;;;5.97;2.80;;;;;;;10.79;100.00;95625.59;5042796;28;20051;-87
2023/04/24 15:36:10;;;;;;;5.27;1.90;;;;;;;10.66;100.00;95625.34;5059232;28;20024;-88
2023/04/24 15:38:39;;;;;;;4.80;2.53;;;;;;;10.84;100.00;95614.56;5071781;28;20024;-88
2023/04/24 15:41:11;;;;;;;5.53;3.00;;;;;;;10.96;100.00;95615.75;5061409;28;20512;-88
2023/04/24 15:43:40;;;;;;;8.43;3.80;;;;;;;11.22;100.00;95610.13;5051124;28;20123;-88
2023/04/24 15:46:06;;;;;;;4.30;2.53;;;;;;;10.95;100.00;95608.88;5083672;28;20037;-88
2023/04/24 15:48:31;;;;;;;4.17;2.20;;;;;;;10.55;100.00;95613.44;5069687;28;20100;-87
2023/04/24 15:50:59;;;;;;;6.30;3.23;;;;;;;10.79;100.00;95612.44;5063695;28;20127;-88
2023/04/24 15:53:28;;;;;;;6.57;2.80;;;;;;;10.86;100.00;95607.28;5041160;28;20045;-87
2023/04/24 15:55:55;;;;;;;3.57;1.87;;;;;;;10.93;100.00;95612.66;5045008;28;20037;-88
2023/04/24 15:58:26;;;;;;;3.73;2.00;;;;;;;10.71;100.00;95601.19;5061204;28;20033;-87
2023/04/24 16:00:57;;;;;;;5.30;2.10;;;;;;;10.82;100.00;95611.28;5062228;28;20087;-88
2023/04/24 16:03:24;;;;;;;4.27;1.60;;;;;;;10.47;100.00;95602.97;5052696;28;20037;-88
2023/04/24 16:05:52;;;;;;;4.23;1.80;;;;;;;10.60;100.00;95603.22;5063974;28;20045;-88
2023/04/24 16:08:19;;;;;;;5.13;1.97;;;;;;;10.87;100.00;95608.94;5048526;28;20029;-88
2023/04/24 16:10:52;;;;;;;3.63;1.57;;;;;;;11.16;100.00;95612.66;5052898;28;20040;-89
2023/04/24 16:13:33;;;;;;;3.08;1.55;;;;;;;11.42;100.00;95610.44;5047863;28;20029;-90
2023/04/24 16:15:59;;;;;;;3.93;1.97;;;;;;;10.99;100.00;95609.34;5072845;28;20056;-88
2023/04/24 16:18:25;;;;;;;3.17;1.77;;;;;;;10.87;100.00;95605.50;5037949;28;20401;-89
2023/04/24 16:20:54;;;;;;;4.90;2.73;;;;;;;10.74;100.00;95613.97;5068959;28;20042;-90
2023/04/24 16:23:19;;;;;;;2.27;1.60;;;;;;;10.66;100.00;95606.13;5063570;28;20080;-90
2023/04/24 16:25:45;;;;;;;4.20;2.27;;;;;;;10.82;100.00;95613.91;5021871;28;20037;-90
2023/04/24 16:28:11;;;;;;;4.40;1.60;;;;;;;10.54;100.00;95621.50;5009326;28;20619;-90
2023/04/24 16:30:38;;;;;;;3.30;1.50;;;;;;;10.51;100.00;95614.78;5035826;28;20047;-90
2023/04/24 16:33:06;;;;;;;5.53;2.07;;;;;;;10.48;100.00;95604.59;5029424;28;20028;-90